createdAt,value
2023-10-31T00:00:35.567Z,17.70
2023-10-31T00:04:38.880Z,17.75
2023-10-31T00:08:41.014Z,17.77
2023-10-31T00:12:43.086Z,17.74
2023-10-31T00:16:45.282Z,17.70
2023-10-31T00:20:48.211Z,17.68
2023-10-31T00:24:50.230Z,17.67
2023-10-31T00:28:52.402Z,17.73
2023-10-31T00:32:54.540Z,17.71
2023-10-31T00:36:56.621Z,17.71
2023-10-31T00:40:58.745Z,17.76
2023-10-31T00:45:01.118Z,17.77
2023-10-31T00:49:04.839Z,17.76
2023-10-31T00:53:08.219Z,17.68
2023-10-31T00:57:10.414Z,17.75
2023-10-31T01:01:12.560Z,17.72
2023-10-31T01:05:15.736Z,17.45
2023-10-31T01:09:18.168Z,17.29
2023-10-31T01:13:20.587Z,17.32
2023-10-31T01:17:22.954Z,17.38
2023-10-31T01:21:25.217Z,17.47
2023-10-31T01:25:27.321Z,17.54
2023-10-31T01:29:29.413Z,17.51
2023-10-31T01:33:32.601Z,17.54
2023-10-31T01:37:34.782Z,17.52
2023-10-31T01:41:37.545Z,17.38
2023-10-31T01:45:39.675Z,17.36
2023-10-31T01:49:42.127Z,17.36
2023-10-31T01:53:44.244Z,17.52
2023-10-31T01:57:48.313Z,17.64
2023-10-31T02:01:51.017Z,17.63
2023-10-31T02:05:57.666Z,17.72
2023-10-31T02:10:05.166Z,17.80
2023-10-31T02:14:10.808Z,17.90
2023-10-31T02:18:14.482Z,17.91
2023-10-31T02:22:16.515Z,17.91
2023-10-31T02:26:19.160Z,17.89
2023-10-31T02:30:21.720Z,17.85
2023-10-31T02:34:23.787Z,17.86
2023-10-31T02:38:25.879Z,17.68
2023-10-31T02:42:33.737Z,17.57
2023-10-31T02:47:00.617Z,17.61
2023-10-31T02:51:02.905Z,17.51
2023-10-31T02:55:05.420Z,17.41
2023-10-31T02:59:07.815Z,17.36
2023-10-31T03:03:10.064Z,17.44
2023-10-31T03:07:12.207Z,17.51
2023-10-31T03:11:28.111Z,17.54
2023-10-31T03:15:32.411Z,17.51
2023-10-31T03:19:34.493Z,17.64
2023-10-31T03:23:36.524Z,17.75
2023-10-31T03:27:38.929Z,17.60
2023-10-31T03:31:41.042Z,17.57
2023-10-31T03:35:45.064Z,17.67
2023-10-31T03:39:47.192Z,17.53
2023-10-31T03:43:49.234Z,17.36
2023-10-31T03:47:51.297Z,17.02
2023-10-31T03:51:53.539Z,16.86
2023-10-31T03:55:55.577Z,16.83
2023-10-31T03:59:57.699Z,16.76
2023-10-31T04:16:25.694Z,16.71
2023-10-31T04:20:27.838Z,16.78
2023-10-31T04:24:29.928Z,16.64
2023-10-31T04:28:31.996Z,16.67
2023-10-31T04:32:34.125Z,16.62
2023-10-31T04:36:36.198Z,16.43
2023-10-31T04:40:38.253Z,16.44
2023-10-31T04:44:40.375Z,16.53
2023-10-31T04:48:42.477Z,16.41
2023-10-31T04:52:44.748Z,16.40
2023-10-31T04:56:48.821Z,16.26
2023-10-31T05:00:50.855Z,15.93
2023-10-31T05:04:53.112Z,15.93
2023-10-31T05:08:55.190Z,15.86
2023-10-31T05:12:58.162Z,15.61
2023-10-31T05:17:00.229Z,15.34
2023-10-31T05:21:02.297Z,15.19
2023-10-31T05:25:04.956Z,15.33
2023-10-31T05:47:45.061Z,14.53
2023-10-31T05:51:57.144Z,14.72
2023-10-31T05:56:03.312Z,14.95
2023-10-31T06:00:11.911Z,14.98
2023-10-31T06:04:18.665Z,14.97
2023-10-31T06:08:24.711Z,15.01
2023-10-31T06:12:28.361Z,15.09
2023-10-31T06:16:30.728Z,15.27
2023-10-31T06:20:32.883Z,15.49
2023-10-31T06:24:35.016Z,15.59
2023-10-31T06:28:41.553Z,15.61
2023-10-31T06:32:47.958Z,15.60
2023-10-31T06:36:50.059Z,15.69
2023-10-31T06:40:52.209Z,15.69
2023-10-31T06:44:54.859Z,15.75
2023-10-31T06:48:56.950Z,15.86
2023-10-31T06:52:59.020Z,16.01
2023-10-31T06:57:02.612Z,16.12
2023-10-31T07:01:04.936Z,16.11
2023-10-31T07:05:07.434Z,16.08
2023-10-31T07:09:10.507Z,15.98
2023-10-31T07:13:13.399Z,16.01
2023-10-31T07:17:15.602Z,16.02
2023-10-31T07:21:18.006Z,16.06
2023-10-31T07:25:20.224Z,16.10
2023-10-31T07:29:22.892Z,16.17
2023-10-31T07:33:25.418Z,16.23
2023-10-31T07:37:27.597Z,16.32
2023-10-31T07:41:30.849Z,16.33
2023-10-31T07:45:34.973Z,16.36
2023-10-31T07:49:37.024Z,16.43
2023-10-31T07:53:39.070Z,16.47
2023-10-31T07:57:41.263Z,16.55
2023-10-31T08:01:43.376Z,16.63
2023-10-31T08:05:45.515Z,16.70
2023-10-31T08:09:47.660Z,16.74
2023-10-31T08:13:49.748Z,16.76
2023-10-31T08:17:52.019Z,16.83
2023-10-31T08:21:55.837Z,16.84
2023-10-31T08:25:59.204Z,16.90
2023-10-31T08:30:01.293Z,17.00
2023-10-31T08:34:03.322Z,17.11
2023-10-31T08:38:05.676Z,17.21
2023-10-31T08:42:08.487Z,17.30
2023-10-31T08:46:10.494Z,17.37
2023-10-31T08:50:12.730Z,17.53
2023-10-31T08:54:14.918Z,17.77
2023-10-31T08:58:19.424Z,18.03
2023-10-31T09:02:21.371Z,18.23
2023-10-31T09:06:23.455Z,18.48
2023-10-31T09:10:25.520Z,18.61
2023-10-31T09:14:28.218Z,18.74
2023-10-31T09:18:30.446Z,18.78
2023-10-31T09:22:32.490Z,18.94
2023-10-31T09:26:34.822Z,19.03
2023-10-31T09:30:37.059Z,19.10
2023-10-31T09:34:39.136Z,18.93
2023-10-31T09:38:41.631Z,18.77
2023-10-31T09:42:44.901Z,18.79
2023-10-31T09:46:48.069Z,18.82
2023-10-31T09:50:51.698Z,18.77
2023-10-31T09:54:54.572Z,19.07
2023-10-31T09:58:56.833Z,19.16
2023-10-31T10:02:59.434Z,19.17
2023-10-31T10:07:03.581Z,18.97
2023-10-31T10:11:06.685Z,19.22
2023-10-31T10:15:09.226Z,19.01
2023-10-31T10:19:21.137Z,18.98
2023-10-31T10:23:24.348Z,19.04
2023-10-31T10:27:26.559Z,19.15
2023-10-31T10:31:28.636Z,19.28
2023-10-31T10:35:30.740Z,19.05
2023-10-31T10:39:35.606Z,18.84
2023-10-31T10:43:40.340Z,18.82
2023-10-31T10:47:49.446Z,18.62
2023-10-31T10:52:03.220Z,18.67
2023-10-31T10:56:14.214Z,18.58
2023-10-31T11:00:17.842Z,18.53
2023-10-31T11:04:20.448Z,18.72
2023-10-31T11:08:24.981Z,18.92
2023-10-31T11:12:27.342Z,19.25
2023-10-31T11:16:44.095Z,19.57
2023-10-31T11:20:46.420Z,19.92
2023-10-31T11:24:51.091Z,19.81
2023-10-31T11:28:53.190Z,19.80
2023-10-31T11:33:06.530Z,19.68
2023-10-31T11:37:28.239Z,19.50
2023-10-31T11:41:33.922Z,19.62
2023-10-31T11:45:43.311Z,19.81
2023-10-31T11:49:51.176Z,20.11
2023-10-31T11:53:53.847Z,20.07
2023-10-31T11:57:56.066Z,20.21
2023-10-31T12:01:58.189Z,19.90
2023-10-31T12:06:03.121Z,19.79
2023-10-31T12:10:06.351Z,19.58
2023-10-31T12:14:08.313Z,19.55
2023-10-31T12:18:10.749Z,19.66
2023-10-31T12:22:16.524Z,19.80
2023-10-31T12:26:23.190Z,20.02
2023-10-31T12:30:25.258Z,19.95
2023-10-31T12:34:28.243Z,19.87
2023-10-31T12:38:30.847Z,19.84
2023-10-31T12:42:34.138Z,19.79
2023-10-31T12:46:36.469Z,20.01
2023-10-31T12:50:41.588Z,20.34
2023-10-31T12:54:43.683Z,20.77
2023-10-31T12:58:46.174Z,20.97
2023-10-31T13:02:48.608Z,20.76
2023-10-31T13:07:04.445Z,20.20
2023-10-31T13:11:10.395Z,20.01
2023-10-31T13:15:12.513Z,19.86
2023-10-31T13:19:14.466Z,20.04
2023-10-31T13:23:16.493Z,19.91
2023-10-31T13:27:18.569Z,19.70
2023-10-31T13:31:20.713Z,19.59
2023-10-31T13:35:22.918Z,19.36
2023-10-31T13:39:25.173Z,19.07
2023-10-31T13:43:27.348Z,18.20
2023-10-31T13:47:31.399Z,17.92
2023-10-31T13:51:33.819Z,17.72
2023-10-31T13:55:35.897Z,17.66
2023-10-31T13:59:38.170Z,16.74
2023-10-31T14:03:42.970Z,15.80
2023-10-31T14:07:45.669Z,15.71
2023-10-31T14:11:47.772Z,15.87
2023-10-31T14:42:45.468Z,15.94
2023-10-31T14:46:48.002Z,15.91
2023-10-31T14:50:50.432Z,15.97
2023-10-31T14:54:52.810Z,15.89
2023-10-31T14:58:54.891Z,16.07
2023-10-31T15:02:58.059Z,16.22
2023-10-31T15:07:00.248Z,16.18
2023-10-31T15:11:02.925Z,16.17
2023-10-31T15:15:05.384Z,16.03
2023-10-31T15:19:08.018Z,15.99
2023-10-31T15:23:10.248Z,16.03
2023-10-31T15:27:15.195Z,16.01
2023-10-31T15:31:17.382Z,15.93
2023-10-31T15:35:19.560Z,16.00
2023-10-31T15:39:23.210Z,16.00
2023-10-31T15:43:25.383Z,16.09
2023-10-31T15:47:27.569Z,16.10
2023-10-31T15:51:30.580Z,16.08
2023-10-31T15:55:32.746Z,16.15
2023-10-31T15:59:35.368Z,16.23
2023-10-31T16:03:37.642Z,16.15
2023-10-31T16:07:40.396Z,16.17
2023-10-31T16:11:42.416Z,16.18
2023-10-31T16:15:44.645Z,16.15
2023-10-31T16:19:46.700Z,16.17
2023-10-31T16:23:51.790Z,16.19
2023-10-31T16:27:53.840Z,16.08
2023-10-31T16:31:56.208Z,15.98
2023-10-31T16:35:58.275Z,15.95
2023-10-31T16:40:00.393Z,15.85
2023-10-31T16:44:02.454Z,15.77
2023-10-31T16:48:05.534Z,15.82
2023-10-31T16:52:07.573Z,15.96
2023-10-31T16:56:09.692Z,15.89
2023-10-31T17:00:12.575Z,15.75
2023-10-31T17:04:14.704Z,15.79
2023-10-31T17:08:17.129Z,15.93
2023-10-31T17:12:19.157Z,15.87
2023-10-31T17:16:21.511Z,15.91
2023-10-31T17:20:23.973Z,15.94
2023-10-31T17:24:26.098Z,15.65
2023-10-31T17:28:28.744Z,15.62
2023-10-31T17:32:32.672Z,15.44
2023-10-31T17:36:34.767Z,15.36
2023-10-31T17:40:36.909Z,15.29
2023-10-31T17:44:39.153Z,15.17
2023-10-31T17:48:41.519Z,15.11
2023-10-31T17:52:43.577Z,15.11
2023-10-31T17:56:45.692Z,15.11
2023-10-31T18:00:47.844Z,15.13
2023-10-31T18:04:49.996Z,15.17
2023-10-31T18:08:52.178Z,15.16
2023-10-31T18:12:54.376Z,15.18
2023-10-31T18:16:56.469Z,15.21
2023-10-31T18:21:02.291Z,15.37
2023-10-31T18:25:05.289Z,15.36
2023-10-31T18:29:07.789Z,15.23
2023-10-31T18:33:09.929Z,15.19
2023-10-31T18:37:12.869Z,15.19
2023-10-31T18:41:16.305Z,14.96
2023-10-31T18:45:18.595Z,14.82
2023-10-31T18:49:20.712Z,14.80
2023-10-31T18:53:22.795Z,14.92
2023-10-31T18:57:25.501Z,15.02
2023-10-31T19:01:27.671Z,15.12
2023-10-31T19:05:33.137Z,15.08
2023-10-31T19:09:35.540Z,15.11
2023-10-31T19:13:37.796Z,14.97
2023-10-31T19:17:42.218Z,14.86
2023-10-31T19:21:44.380Z,14.84
2023-10-31T19:25:46.384Z,14.83
2023-10-31T19:29:48.601Z,14.86
2023-10-31T19:33:51.303Z,14.89
2023-10-31T19:37:53.490Z,14.71
2023-10-31T19:41:58.010Z,14.66
2023-10-31T19:46:04.626Z,14.58
2023-10-31T19:50:07.280Z,14.49
2023-10-31T19:54:09.711Z,14.43
2023-10-31T19:58:11.781Z,14.32
2023-10-31T20:02:16.850Z,14.01
2023-10-31T20:06:20.727Z,13.87
2023-10-31T20:10:22.805Z,13.66
2023-10-31T20:14:24.960Z,13.47
2023-10-31T20:18:28.716Z,13.44
2023-10-31T20:22:30.844Z,13.53
2023-10-31T20:26:32.995Z,13.47
2023-10-31T20:30:35.384Z,13.38
2023-10-31T20:34:37.542Z,13.33
2023-10-31T20:38:40.136Z,13.28
2023-10-31T20:42:43.949Z,13.31
2023-10-31T20:46:47.723Z,13.15
2023-10-31T20:50:50.940Z,13.20
2023-10-31T20:54:53.067Z,13.13
2023-10-31T20:58:55.550Z,13.12
2023-10-31T21:03:05.608Z,13.18
2023-10-31T21:07:09.017Z,13.00
2023-10-31T21:11:11.115Z,13.13
2023-10-31T21:15:13.383Z,13.19
2023-10-31T21:19:21.507Z,13.23
2023-10-31T21:23:29.943Z,13.10
2023-10-31T21:27:32.148Z,12.84
2023-10-31T21:31:34.342Z,12.83
2023-10-31T21:35:36.429Z,12.70
2023-10-31T21:39:41.894Z,12.65
2023-10-31T21:43:44.209Z,12.73
2023-10-31T21:47:46.382Z,12.60
2023-10-31T21:51:48.444Z,12.68
2023-10-31T21:55:50.465Z,12.63
2023-10-31T21:59:52.489Z,12.70
2023-10-31T22:03:54.700Z,12.72
2023-10-31T22:07:56.885Z,12.79
2023-10-31T22:11:59.273Z,12.82
2023-10-31T22:16:01.787Z,12.97
2023-10-31T22:20:06.273Z,13.00
2023-10-31T22:24:08.512Z,12.93
2023-10-31T22:28:10.803Z,12.89
2023-10-31T22:32:12.814Z,12.96
2023-10-31T22:36:14.994Z,13.01
2023-10-31T22:40:17.252Z,13.02
2023-10-31T22:44:19.524Z,13.05
2023-10-31T22:48:22.344Z,13.02
2023-10-31T22:52:24.525Z,12.90
2023-10-31T22:56:26.612Z,12.68
2023-10-31T23:00:29.358Z,12.59
2023-10-31T23:04:31.448Z,12.73
2023-10-31T23:08:33.458Z,12.52
2023-10-31T23:12:36.152Z,12.00
2023-10-31T23:16:38.436Z,11.83
2023-10-31T23:20:40.735Z,11.70
2023-10-31T23:24:47.778Z,11.47
2023-10-31T23:28:49.880Z,11.37
2023-10-31T23:32:52.810Z,11.43
2023-10-31T23:36:55.011Z,11.34
2023-10-31T23:40:57.139Z,11.26
2023-10-31T23:44:59.655Z,11.23
2023-10-31T23:49:01.672Z,11.43
2023-10-31T23:53:03.992Z,11.28
2023-10-31T23:57:06.110Z,11.47
